Time;durP1;ratioP1;P1;durP2;ratioP2;P2;SDS_P1;SDS_P2;PMS_P1;PMS_P2;Temp;Humidity;BMP_temperature;BMP_pressure;BME280_temperature;BME280_humidity;BME280_pressure;Samples;Min_cycle;Max_cycle;Signal;HPM_P1;HPM_P2
2022/08/28 00:02:08;;;;;;;29.30;24.80;;;;;;;;;;5065121;28;20201;-69
2022/08/28 00:04:35;;;;;;;29.63;24.83;;;;;;;;;;5065243;28;20230;-69
2022/08/28 00:07:02;;;;;;;25.73;22.52;;;;;;;;;;5065572;28;20197;-69
2022/08/28 00:09:28;;;;;;;30.17;23.60;;;;;;;;;;5064977;28;20466;-69
2022/08/28 00:11:54;;;;;;;29.50;24.67;;;;;;;;;;5064999;28;20201;-69
2022/08/28 00:14:22;;;;;;;26.83;23.23;;;;;;;;;;5064916;28;20243;-69
2022/08/28 00:16:49;;;;;;;26.40;23.00;;;;;;;;;;5064956;28;20201;-69
2022/08/28 00:19:16;;;;;;;30.25;23.20;;;;;;;;;;5064886;28;20243;-69
2022/08/28 00:21:43;;;;;;;27.13;23.20;;;;;;;;;;5064955;28;20204;-69
2022/08/28 00:24:10;;;;;;;27.38;24.42;;;;;;;;;;5064926;28;20394;-69
2022/08/28 00:29:20;;;;;;;27.05;24.15;;;;;;;;;;5064483;28;20389;-69
2022/08/28 00:31:46;;;;;;;28.23;23.95;;;;;;;;;;5064574;28;20227;-69
2022/08/28 00:34:13;;;;;;;26.30;23.42;;;;;;;;;;5064764;28;20204;-69
2022/08/28 00:36:40;;;;;;;25.50;22.75;;;;;;;;;;5064036;28;20216;-69
2022/08/28 00:39:07;;;;;;;26.35;21.35;;;;;;;;;;5064325;28;20205;-69
2022/08/28 00:41:34;;;;;;;28.30;22.75;;;;;;;;;;5064357;28;20197;-69
2022/08/28 00:44:08;;;;;;;28.08;23.90;;;;;;;;;;5064684;28;20193;-69
2022/08/28 00:46:34;;;;;;;27.30;22.13;;;;;;;;;;5064539;28;20394;-69
2022/08/28 00:49:01;;;;;;;28.77;21.60;;;;;;;;;;5064210;28;20204;-69
2022/08/28 00:54:13;;;;;;;25.58;20.55;;;;;;;;;;5064198;28;20263;-69
2022/08/28 00:56:40;;;;;;;26.42;20.88;;;;;;;;;;5064330;28;20205;-69
2022/08/28 00:59:07;;;;;;;23.92;20.25;;;;;;;;;;5064133;28;20224;-69
2022/08/28 01:01:34;;;;;;;20.98;18.75;;;;;;;;;;5064237;28;20395;-69
2022/08/28 01:04:01;;;;;;;28.17;23.40;;;;;;;;;;5064055;28;20200;-69
2022/08/28 01:06:27;;;;;;;27.67;23.27;;;;;;;;;;5063894;28;20217;-69
2022/08/28 01:08:54;;;;;;;25.35;22.40;;;;;;;;;;5063847;28;20205;-69
2022/08/28 01:11:22;;;;;;;27.50;20.92;;;;;;;;;;5064092;28;20196;-69
2022/08/28 01:13:49;;;;;;;25.63;21.83;;;;;;;;;;5063820;28;20240;-69
2022/08/28 01:16:18;;;;;;;23.55;21.02;;;;;;;;;;5063772;28;20212;-69
2022/08/28 01:18:45;;;;;;;23.25;20.58;;;;;;;;;;5063858;28;20244;-69
2022/08/28 01:21:15;;;;;;;23.38;21.02;;;;;;;;;;5063455;28;20204;-69
2022/08/28 01:23:49;;;;;;;24.30;21.15;;;;;;;;;;5063930;28;20189;-69
2022/08/28 01:26:15;;;;;;;31.20;22.75;;;;;;;;;;5063717;28;20196;-69
2022/08/28 01:28:42;;;;;;;28.08;22.33;;;;;;;;;;5063660;28;20197;-69
2022/08/28 01:31:08;;;;;;;24.13;21.52;;;;;;;;;;5063306;28;20204;-69
2022/08/28 01:33:35;;;;;;;26.88;22.38;;;;;;;;;;5063393;28;20232;-69
2022/08/28 01:36:01;;;;;;;26.75;22.02;;;;;;;;;;5063760;28;20396;-69
2022/08/28 01:38:27;;;;;;;28.85;22.92;;;;;;;;;;5063508;28;20204;-69
2022/08/28 01:40:56;;;;;;;27.10;23.77;;;;;;;;;;5063170;28;20204;-69
2022/08/28 01:43:25;;;;;;;26.50;23.08;;;;;;;;;;5063409;28;20221;-69
2022/08/28 01:45:53;;;;;;;28.40;21.60;;;;;;;;;;5063439;28;20201;-69
2022/08/28 01:48:20;;;;;;;25.65;21.10;;;;;;;;;;5062836;28;20204;-69
2022/08/28 01:50:46;;;;;;;21.55;18.75;;;;;;;;;;5062933;28;20388;-69
2022/08/28 01:53:14;;;;;;;24.17;21.58;;;;;;;;;;5063118;28;20228;-69
2022/08/28 01:55:41;;;;;;;25.42;20.67;;;;;;;;;;5062723;28;20197;-69
2022/08/28 01:58:09;;;;;;;22.10;19.80;;;;;;;;;;5062689;28;20205;-69
2022/08/28 02:00:35;;;;;;;28.13;21.10;;;;;;;;;;5062904;28;20201;-69
2022/08/28 02:03:02;;;;;;;29.02;20.98;;;;;;;;;;5063016;28;20493;-69
2022/08/28 02:05:30;;;;;;;22.77;20.00;;;;;;;;;;5062952;28;20221;-69
2022/08/28 02:07:56;;;;;;;28.73;22.25;;;;;;;;;;5062989;28;20245;-69
2022/08/28 02:10:24;;;;;;;23.20;20.52;;;;;;;;;;5062450;28;20204;-69
2022/08/28 02:12:50;;;;;;;26.67;20.13;;;;;;;;;;5062862;28;20216;-69
2022/08/28 02:15:17;;;;;;;28.15;21.70;;;;;;;;;;5062758;28;20201;-69
2022/08/28 02:17:44;;;;;;;24.20;21.70;;;;;;;;;;5062783;28;20519;-69
2022/08/28 02:20:10;;;;;;;32.45;23.50;;;;;;;;;;5062595;28;20520;-69
2022/08/28 02:22:37;;;;;;;25.50;22.13;;;;;;;;;;5062556;28;20212;-69
2022/08/28 02:25:03;;;;;;;25.85;21.92;;;;;;;;;;5062451;28;20201;-69
2022/08/28 02:27:30;;;;;;;29.73;24.17;;;;;;;;;;5062658;28;20420;-69
2022/08/28 02:29:57;;;;;;;29.23;23.17;;;;;;;;;;5062317;28;20212;-69
2022/08/28 02:32:25;;;;;;;26.25;23.35;;;;;;;;;;5062482;28;20193;-69
2022/08/28 02:34:51;;;;;;;30.10;23.80;;;;;;;;;;5062534;28;20197;-69
2022/08/28 02:37:19;;;;;;;26.13;22.67;;;;;;;;;;5062333;28;20242;-69
2022/08/28 02:39:46;;;;;;;28.90;23.10;;;;;;;;;;5062003;28;20197;-69
2022/08/28 02:42:12;;;;;;;30.17;23.27;;;;;;;;;;5062937;28;20196;-69
2022/08/28 02:44:38;;;;;;;32.45;23.10;;;;;;;;;;5062201;28;20193;-69
2022/08/28 02:47:05;;;;;;;30.58;24.30;;;;;;;;;;5062317;28;20388;-69
2022/08/28 02:49:32;;;;;;;26.45;23.50;;;;;;;;;;5062046;28;20198;-69
2022/08/28 02:51:58;;;;;;;30.30;23.58;;;;;;;;;;5062194;28;20193;-69
2022/08/28 02:54:26;;;;;;;29.98;24.52;;;;;;;;;;5062034;28;20228;-69
2022/08/28 02:56:53;;;;;;;31.00;25.13;;;;;;;;;;5062117;28;20205;-69
2022/08/28 02:59:19;;;;;;;28.83;25.02;;;;;;;;;;5061925;28;20211;-69
2022/08/28 03:01:46;;;;;;;32.83;25.42;;;;;;;;;;5061919;28;20244;-69
2022/08/28 03:04:12;;;;;;;33.05;26.17;;;;;;;;;;5062064;28;20503;-69
2022/08/28 03:06:40;;;;;;;33.33;26.38;;;;;;;;;;5061738;28;20247;-69
2022/08/28 03:09:07;;;;;;;32.13;26.58;;;;;;;;;;5061980;28;20219;-69
2022/08/28 03:11:33;;;;;;;36.20;25.63;;;;;;;;;;5062028;28;20204;-69
2022/08/28 03:14:00;;;;;;;28.92;25.00;;;;;;;;;;5061994;28;20541;-69
2022/08/28 03:16:26;;;;;;;32.30;26.48;;;;;;;;;;5062004;28;20454;-69
2022/08/28 03:18:52;;;;;;;32.03;27.52;;;;;;;;;;5061656;28;20383;-69
2022/08/28 03:21:19;;;;;;;31.27;26.20;;;;;;;;;;5061754;28;20203;-69
2022/08/28 03:23:46;;;;;;;30.58;25.85;;;;;;;;;;5061795;28;20193;-69
2022/08/28 03:26:14;;;;;;;33.78;27.88;;;;;;;;;;5061962;28;20505;-69
2022/08/28 03:28:42;;;;;;;34.63;25.95;;;;;;;;;;5061847;28;20205;-69
2022/08/28 03:31:10;;;;;;;31.92;24.23;;;;;;;;;;5061681;28;20197;-69
2022/08/28 03:33:37;;;;;;;28.92;23.08;;;;;;;;;;5061579;28;20271;-69
2022/08/28 03:36:03;;;;;;;25.77;22.50;;;;;;;;;;5061867;28;20205;-69
2022/08/28 03:38:30;;;;;;;30.20;23.15;;;;;;;;;;5061788;28;20201;-69
2022/08/28 03:40:57;;;;;;;29.02;23.50;;;;;;;;;;5061854;28;20204;-69
2022/08/28 03:43:24;;;;;;;27.95;23.27;;;;;;;;;;5061773;28;20197;-69
2022/08/28 03:45:52;;;;;;;27.00;23.23;;;;;;;;;;5061763;28;20232;-69
2022/08/28 03:48:19;;;;;;;25.98;22.65;;;;;;;;;;5061489;28;20227;-69
2022/08/28 03:50:45;;;;;;;25.17;22.35;;;;;;;;;;5061549;28;20219;-69
2022/08/28 03:53:11;;;;;;;27.45;24.08;;;;;;;;;;5061555;28;20221;-69
2022/08/28 03:55:39;;;;;;;27.70;23.80;;;;;;;;;;5061660;28;20208;-69
2022/08/28 03:58:07;;;;;;;26.05;22.08;;;;;;;;;;5061571;28;20197;-69
2022/08/28 04:00:34;;;;;;;30.42;24.55;;;;;;;;;;5061324;28;20197;-69
2022/08/28 04:03:00;;;;;;;32.55;26.73;;;;;;;;;;5061456;28;20532;-69
2022/08/28 04:05:27;;;;;;;33.15;25.10;;;;;;;;;;5061536;28;20217;-69
2022/08/28 04:07:53;;;;;;;24.98;22.17;;;;;;;;;;5061353;28;20201;-69
2022/08/28 04:10:20;;;;;;;24.35;21.70;;;;;;;;;;5061140;28;20204;-69
2022/08/28 04:12:46;;;;;;;24.50;20.98;;;;;;;;;;5063271;28;20571;-69
2022/08/28 04:15:13;;;;;;;28.85;22.70;;;;;;;;;;5065005;28;20415;-69
2022/08/28 04:17:40;;;;;;;23.88;21.30;;;;;;;;;;5064884;28;20220;-68
2022/08/28 04:20:08;;;;;;;29.90;24.70;;;;;;;;;;5064921;28;20197;-68
2022/08/28 04:22:35;;;;;;;32.25;24.27;;;;;;;;;;5064964;28;20200;-68
2022/08/28 04:25:02;;;;;;;31.80;25.13;;;;;;;;;;5064956;28;20184;-68
2022/08/28 04:27:28;;;;;;;28.27;23.23;;;;;;;;;;5064792;28;20620;-68
2022/08/28 04:29:54;;;;;;;29.40;24.95;;;;;;;;;;5064401;28;20219;-68
2022/08/28 04:32:22;;;;;;;26.83;22.42;;;;;;;;;;5064906;28;20239;-68
2022/08/28 04:34:49;;;;;;;26.23;21.60;;;;;;;;;;5064724;28;20499;-68
2022/08/28 04:37:15;;;;;;;25.58;21.20;;;;;;;;;;5064649;28;20201;-68
2022/08/28 04:39:41;;;;;;;28.42;21.67;;;;;;;;;;5064379;28;20208;-68
2022/08/28 04:42:08;;;;;;;24.65;20.55;;;;;;;;;;5064530;28;20208;-68
2022/08/28 04:44:34;;;;;;;24.45;19.92;;;;;;;;;;5064383;28;20200;-68
2022/08/28 04:47:01;;;;;;;29.33;22.98;;;;;;;;;;5064651;28;20197;-68
2022/08/28 04:49:28;;;;;;;24.48;19.35;;;;;;;;;;5064402;28;20503;-68
2022/08/28 04:51:55;;;;;;;22.25;19.58;;;;;;;;;;5064268;28;20204;-69
2022/08/28 04:54:21;;;;;;;29.33;21.27;;;;;;;;;;5064083;28;20216;-69
2022/08/28 04:56:47;;;;;;;25.48;20.38;;;;;;;;;;5063987;28;20208;-69
2022/08/28 04:59:13;;;;;;;24.98;20.30;;;;;;;;;;5064087;28;20392;-69
2022/08/28 05:01:41;;;;;;;24.83;19.02;;;;;;;;;;5064309;28;20442;-69
2022/08/28 05:04:07;;;;;;;26.23;20.25;;;;;;;;;;5064211;28;20231;-69
2022/08/28 05:06:35;;;;;;;25.58;19.35;;;;;;;;;;5064143;28;20221;-69
2022/08/28 05:09:02;;;;;;;27.67;21.95;;;;;;;;;;5063979;28;20193;-69
2022/08/28 05:11:29;;;;;;;27.42;20.80;;;;;;;;;;5063903;28;20212;-69
2022/08/28 05:13:56;;;;;;;30.10;21.60;;;;;;;;;;5063812;28;20228;-69
2022/08/28 05:16:22;;;;;;;23.30;20.83;;;;;;;;;;5063987;28;20193;-69
2022/08/28 05:18:49;;;;;;;25.08;20.33;;;;;;;;;;5063845;28;20268;-69
2022/08/28 05:21:19;;;;;;;27.90;20.52;;;;;;;;;;5063853;28;20212;-69
2022/08/28 05:23:47;;;;;;;22.25;19.95;;;;;;;;;;5063572;28;20193;-69
2022/08/28 05:26:14;;;;;;;23.58;19.35;;;;;;;;;;5063605;28;20204;-69
2022/08/28 05:28:40;;;;;;;39.42;22.15;;;;;;;;;;5063748;28;20528;-69
2022/08/28 05:31:10;;;;;;;24.98;20.13;;;;;;;;;;5063546;28;20204;-69
2022/08/28 05:33:37;;;;;;;27.38;22.35;;;;;;;;;;5063565;28;20208;-69
2022/08/28 05:36:04;;;;;;;26.30;20.45;;;;;;;;;;5063789;28;20274;-69
2022/08/28 05:38:30;;;;;;;29.17;23.00;;;;;;;;;;5063416;28;20197;-69
2022/08/28 05:40:58;;;;;;;28.67;21.38;;;;;;;;;;5062925;28;20197;-69
2022/08/28 05:43:24;;;;;;;28.83;23.23;;;;;;;;;;5063544;28;20197;-69
2022/08/28 05:45:56;;;;;;;27.33;22.02;;;;;;;;;;5063440;28;20201;-69
2022/08/28 05:48:22;;;;;;;24.90;20.20;;;;;;;;;;5063351;28;20381;-69
2022/08/28 05:50:49;;;;;;;27.35;22.95;;;;;;;;;;5062989;28;20268;-69
2022/08/28 05:53:16;;;;;;;23.00;19.00;;;;;;;;;;5063011;28;20200;-69
2022/08/28 05:55:42;;;;;;;26.83;21.92;;;;;;;;;;5062936;28;20217;-69
2022/08/28 06:00:50;;;;;;;24.05;19.33;;;;;;;;;;5062526;28;20228;-69
2022/08/28 06:03:17;;;;;;;26.30;18.55;;;;;;;;;;5063022;28;20243;-69
2022/08/28 06:05:43;;;;;;;22.02;17.90;;;;;;;;;;5062782;28;20217;-69
2022/08/28 06:08:09;;;;;;;25.45;17.13;;;;;;;;;;5063144;28;20197;-69
2022/08/28 06:10:42;;;;;;;22.70;17.92;;;;;;;;;;5062777;28;20255;-69
2022/08/28 06:13:10;;;;;;;23.23;18.63;;;;;;;;;;5062964;28;20268;-69
2022/08/28 06:15:41;;;;;;;21.25;17.73;;;;;;;;;;5063021;28;20221;-69
2022/08/28 06:18:07;;;;;;;23.98;17.85;;;;;;;;;;5062753;28;20397;-69
2022/08/28 06:20:36;;;;;;;21.55;19.13;;;;;;;;;;5062308;28;20401;-69
2022/08/28 06:23:02;;;;;;;20.92;16.98;;;;;;;;;;5062227;28;20197;-70
2022/08/28 06:25:28;;;;;;;20.35;16.90;;;;;;;;;;5062574;28;20362;-69
2022/08/28 06:27:54;;;;;;;25.23;18.75;;;;;;;;;;5062563;28;20212;-69
2022/08/28 06:30:22;;;;;;;23.33;17.33;;;;;;;;;;5062272;28;20449;-69
2022/08/28 06:32:48;;;;;;;20.67;18.13;;;;;;;;;;5062256;28;20203;-69
2022/08/28 06:35:15;;;;;;;22.90;17.35;;;;;;;;;;5061963;28;20232;-69
2022/08/28 06:37:41;;;;;;;21.42;17.45;;;;;;;;;;5062270;28;20203;-69
2022/08/28 06:40:08;;;;;;;20.65;17.63;;;;;;;;;;5062279;28;20207;-69
2022/08/28 06:42:34;;;;;;;19.40;16.30;;;;;;;;;;5062262;28;20197;-69
2022/08/28 06:45:00;;;;;;;22.27;17.25;;;;;;;;;;5062198;28;20193;-69
2022/08/28 06:47:28;;;;;;;23.73;16.67;;;;;;;;;;5062072;28;20201;-69
2022/08/28 06:49:54;;;;;;;17.15;15.32;;;;;;;;;;5062165;28;20520;-69
2022/08/28 06:52:21;;;;;;;16.73;14.90;;;;;;;;;;5062241;28;20423;-69
2022/08/28 06:54:47;;;;;;;20.55;16.05;;;;;;;;;;5062089;28;20217;-69
2022/08/28 06:57:13;;;;;;;19.70;15.07;;;;;;;;;;5062137;28;20204;-69
2022/08/28 06:59:39;;;;;;;19.25;14.90;;;;;;;;;;5061820;28;20201;-69
2022/08/28 07:02:07;;;;;;;18.45;14.60;;;;;;;;;;5061867;28;20197;-69
2022/08/28 07:04:34;;;;;;;14.63;13.15;;;;;;;;;;5062120;28;20473;-69
2022/08/28 07:07:01;;;;;;;18.92;14.27;;;;;;;;;;5061935;28;20208;-69
2022/08/28 07:09:27;;;;;;;17.10;13.93;;;;;;;;;;5061916;28;20201;-69
2022/08/28 07:11:53;;;;;;;15.90;13.45;;;;;;;;;;5061999;28;20204;-69
2022/08/28 07:14:20;;;;;;;17.08;14.38;;;;;;;;;;5061854;28;20228;-69
2022/08/28 07:16:46;;;;;;;14.85;12.32;;;;;;;;;;5061779;28;20207;-69
2022/08/28 07:19:12;;;;;;;17.20;13.10;;;;;;;;;;5061847;28;20212;-69
2022/08/28 07:21:41;;;;;;;16.02;11.82;;;;;;;;;;5061767;28;20203;-69
2022/08/28 07:24:09;;;;;;;18.40;13.32;;;;;;;;;;5061770;28;20204;-69
2022/08/28 07:26:35;;;;;;;18.05;13.98;;;;;;;;;;5061932;28;20196;-69
2022/08/28 07:29:03;;;;;;;17.63;13.18;;;;;;;;;;5061630;28;20208;-69
2022/08/28 07:31:29;;;;;;;20.10;13.05;;;;;;;;;;5061701;28;20205;-69
2022/08/28 07:33:55;;;;;;;15.75;12.15;;;;;;;;;;5061872;28;20519;-69
2022/08/28 07:36:22;;;;;;;18.38;13.27;;;;;;;;;;5061793;28;20204;-69
2022/08/28 07:38:51;;;;;;;12.98;11.10;;;;;;;;;;5061642;28;20197;-69
2022/08/28 07:41:18;;;;;;;13.32;11.80;;;;;;;;;;5061790;28;20414;-69
2022/08/28 07:46:29;;;;;;;16.08;12.63;;;;;;;;;;5061832;28;20234;-69
2022/08/28 07:48:57;;;;;;;12.38;10.98;;;;;;;;;;5065132;28;20207;-69
2022/08/28 07:51:24;;;;;;;11.93;10.82;;;;;;;;;;5065500;28;20201;-69
2022/08/28 07:53:52;;;;;;;18.17;11.57;;;;;;;;;;5065385;28;20204;-69
2022/08/28 07:56:18;;;;;;;12.60;10.40;;;;;;;;;;5065077;28;20288;-69
2022/08/28 07:58:45;;;;;;;10.93;9.73;;;;;;;;;;5065534;28;20248;-69
2022/08/28 08:01:11;;;;;;;11.43;9.90;;;;;;;;;;5064923;28;20204;-69
2022/08/28 08:03:38;;;;;;;11.15;9.77;;;;;;;;;;5065362;28;20204;-69
2022/08/28 08:06:04;;;;;;;11.85;9.30;;;;;;;;;;5065184;28;20220;-69
2022/08/28 08:08:32;;;;;;;10.43;9.25;;;;;;;;;;5065141;28;20205;-69
2022/08/28 08:11:01;;;;;;;11.02;9.02;;;;;;;;;;5065092;28;20236;-69
2022/08/28 08:13:28;;;;;;;10.63;9.18;;;;;;;;;;5065235;28;20196;-69
2022/08/28 08:15:54;;;;;;;13.30;9.82;;;;;;;;;;5064866;28;20221;-69
2022/08/28 08:18:21;;;;;;;9.75;8.90;;;;;;;;;;5065043;28;20197;-69
2022/08/28 08:20:47;;;;;;;12.25;10.35;;;;;;;;;;5064751;28;20378;-69
2022/08/28 08:23:14;;;;;;;10.77;9.68;;;;;;;;;;5064669;28;20267;-69
2022/08/28 08:25:40;;;;;;;13.20;8.85;;;;;;;;;;5064697;28;20446;-69
2022/08/28 08:28:08;;;;;;;10.27;9.20;;;;;;;;;;5064707;28;20200;-69
2022/08/28 08:30:34;;;;;;;8.88;8.02;;;;;;;;;;5064561;28;20258;-69
2022/08/28 08:33:00;;;;;;;10.40;8.35;;;;;;;;;;5064655;28;20204;-69
2022/08/28 08:35:27;;;;;;;9.05;8.25;;;;;;;;;;5064658;28;20517;-69
2022/08/28 08:37:53;;;;;;;11.88;8.55;;;;;;;;;;5064485;28;20421;-69
2022/08/28 08:40:19;;;;;;;15.82;8.65;;;;;;;;;;5064524;28;20427;-68
2022/08/28 08:42:47;;;;;;;13.93;8.70;;;;;;;;;;5064749;28;20211;-68
2022/08/28 08:45:17;;;;;;;12.25;8.73;;;;;;;;;;5064496;28;20197;-69
2022/08/28 08:47:46;;;;;;;9.90;8.18;;;;;;;;;;5064537;28;20400;-68
2022/08/28 08:50:15;;;;;;;9.40;7.93;;;;;;;;;;5064204;28;20208;-68
2022/08/28 08:52:48;;;;;;;8.00;7.30;;;;;;;;;;5064249;28;20196;-68
2022/08/28 08:55:19;;;;;;;9.15;7.78;;;;;;;;;;5064404;28;20220;-68
2022/08/28 08:57:46;;;;;;;8.05;7.20;;;;;;;;;;5063640;28;20211;-68
2022/08/28 09:00:13;;;;;;;8.50;7.72;;;;;;;;;;5064074;28;20508;-68
2022/08/28 09:02:44;;;;;;;8.38;6.80;;;;;;;;;;5064144;28;20213;-69
2022/08/28 09:05:13;;;;;;;8.13;7.43;;;;;;;;;;5063981;28;20213;-69
2022/08/28 09:07:44;;;;;;;7.97;7.25;;;;;;;;;;5064029;28;20196;-69
2022/08/28 09:10:12;;;;;;;8.13;7.28;;;;;;;;;;5063851;28;20197;-69
2022/08/28 09:12:45;;;;;;;8.35;7.57;;;;;;;;;;5063915;28;20196;-69
2022/08/28 09:15:13;;;;;;;10.63;7.32;;;;;;;;;;5063713;28;20225;-69
2022/08/28 09:17:41;;;;;;;7.65;6.53;;;;;;;;;;5064112;28;20211;-68
2022/08/28 09:20:11;;;;;;;6.95;6.20;;;;;;;;;;5063490;28;20232;-68
2022/08/28 09:22:42;;;;;;;7.05;6.38;;;;;;;;;;5063989;28;20430;-68
2022/08/28 09:25:09;;;;;;;8.48;6.93;;;;;;;;;;5063707;28;20206;-68
2022/08/28 09:27:35;;;;;;;6.45;5.88;;;;;;;;;;5063665;28;20558;-68
2022/08/28 09:30:04;;;;;;;7.55;6.78;;;;;;;;;;5063307;28;20547;-68
2022/08/28 09:32:32;;;;;;;7.88;6.63;;;;;;;;;;5064714;28;20439;-68
2022/08/28 09:35:00;;;;;;;7.00;6.30;;;;;;;;;;5065162;28;20238;-69
2022/08/28 09:37:30;;;;;;;6.40;5.95;;;;;;;;;;5063516;28;20200;-69
2022/08/28 09:40:12;;;;;;;7.93;6.63;;;;;;;;;;5063300;28;20204;-69
2022/08/28 09:45:28;;;;;;;10.90;9.25;;;;;;;;;;5052658;28;20472;-69
2022/08/28 09:47:56;;;;;;;9.38;8.40;;;;;;;;;;5063438;28;20235;-69
2022/08/28 09:50:30;;;;;;;9.07;8.15;;;;;;;;;;5063056;28;20204;-69
2022/08/28 09:53:00;;;;;;;10.40;8.10;;;;;;;;;;5063145;28;20554;-69
2022/08/28 09:55:30;;;;;;;10.77;9.68;;;;;;;;;;5063311;28;20224;-69
2022/08/28 09:57:56;;;;;;;10.85;9.40;;;;;;;;;;5063074;28;20369;-69
2022/08/28 10:00:23;;;;;;;11.20;8.73;;;;;;;;;;5062750;28;20197;-69
2022/08/28 10:02:52;;;;;;;9.90;8.98;;;;;;;;;;5063242;28;20435;-68
2022/08/28 10:05:28;;;;;;;10.00;8.95;;;;;;;;;;5062746;28;20220;-68
2022/08/28 10:07:56;;;;;;;9.93;8.07;;;;;;;;;;5062979;28;20436;-68
2022/08/28 10:10:27;;;;;;;11.10;7.90;;;;;;;;;;5061938;28;20201;-69
2022/08/28 10:13:00;;;;;;;14.18;8.13;;;;;;;;;;5062867;28;20212;-69
2022/08/28 10:15:29;;;;;;;9.15;8.27;;;;;;;;;;5062684;28;20594;-69
2022/08/28 10:18:04;;;;;;;10.52;9.32;;;;;;;;;;5062563;28;20205;-69
2022/08/28 10:20:39;;;;;;;11.90;8.30;;;;;;;;;;5062374;28;20203;-69
2022/08/28 10:23:09;;;;;;;13.52;7.30;;;;;;;;;;5062510;28;20191;-69
2022/08/28 10:25:43;;;;;;;7.47;6.88;;;;;;;;;;5062588;28;20200;-69
2022/08/28 10:28:17;;;;;;;7.55;6.95;;;;;;;;;;5062169;28;20211;-69
2022/08/28 10:30:45;;;;;;;7.30;6.60;;;;;;;;;;5062491;28;20203;-69
2022/08/28 10:33:20;;;;;;;8.63;7.38;;;;;;;;;;5062434;28;20204;-69
2022/08/28 10:35:51;;;;;;;7.68;6.13;;;;;;;;;;5062493;28;20220;-69
2022/08/28 10:38:20;;;;;;;8.48;6.75;;;;;;;;;;5062403;28;20196;-69
2022/08/28 10:40:51;;;;;;;8.85;6.13;;;;;;;;;;5061979;28;20224;-69
2022/08/28 10:43:20;;;;;;;6.90;6.28;;;;;;;;;;5062076;28;20200;-69
2022/08/28 10:45:47;;;;;;;6.85;6.22;;;;;;;;;;5062356;28;20250;-69
2022/08/28 10:48:17;;;;;;;9.70;6.72;;;;;;;;;;5062307;28;20534;-69
2022/08/28 10:50:44;;;;;;;12.00;6.53;;;;;;;;;;5062047;28;20189;-68
2022/08/28 10:53:13;;;;;;;11.35;5.93;;;;;;;;;;5062108;28;20197;-69
2022/08/28 10:55:44;;;;;;;6.82;6.22;;;;;;;;;;5061829;28;20418;-69
2022/08/28 10:58:15;;;;;;;8.40;6.25;;;;;;;;;;5062246;28;20615;-69
2022/08/28 11:00:42;;;;;;;8.00;6.05;;;;;;;;;;5061855;28;20204;-69
2022/08/28 11:03:10;;;;;;;6.20;5.60;;;;;;;;;;5062109;28;20520;-69
2022/08/28 11:05:39;;;;;;;8.20;6.22;;;;;;;;;;5062515;28;20212;-69
2022/08/28 11:08:07;;;;;;;6.82;6.30;;;;;;;;;;5062194;28;20276;-69
2022/08/28 11:10:44;;;;;;;6.22;5.68;;;;;;;;;;5062171;28;20197;-68
2022/08/28 11:13:12;;;;;;;7.03;6.28;;;;;;;;;;5061987;28;20436;-69
2022/08/28 11:15:50;;;;;;;12.30;7.45;;;;;;;;;;5061945;28;20388;-69
2022/08/28 11:18:41;;;;;;;9.65;6.60;;;;;;;;;;5061944;28;20214;-69
2022/08/28 11:21:12;;;;;;;6.90;6.00;;;;;;;;;;5062733;28;20268;-69
2022/08/28 11:23:42;;;;;;;7.45;5.90;;;;;;;;;;5066061;28;20197;-68
2022/08/28 11:26:09;;;;;;;8.48;6.00;;;;;;;;;;5066051;28;20519;-69
2022/08/28 11:28:44;;;;;;;8.73;5.97;;;;;;;;;;5065943;28;20196;-69
2022/08/28 11:31:27;;;;;;;9.50;6.03;;;;;;;;;;5065672;28;20199;-69
2022/08/28 11:33:54;;;;;;;6.65;5.75;;;;;;;;;;5065978;28;20196;-69
2022/08/28 11:36:36;;;;;;;6.30;5.32;;;;;;;;;;5065824;28;20598;-69
2022/08/28 11:39:04;;;;;;;5.95;5.30;;;;;;;;;;5065356;28;20196;-69
2022/08/28 11:41:31;;;;;;;6.00;5.40;;;;;;;;;;5065539;28;20204;-69
2022/08/28 11:44:16;;;;;;;6.28;5.53;;;;;;;;;;5065597;28;20204;-69
2022/08/28 11:46:46;;;;;;;6.00;5.20;;;;;;;;;;5065718;28;20192;-69
2022/08/28 11:49:27;;;;;;;5.90;4.82;;;;;;;;;;5065372;28;20397;-69
2022/08/28 11:52:03;;;;;;;5.25;4.72;;;;;;;;;;5065409;28;20564;-69
2022/08/28 11:54:37;;;;;;;6.97;5.03;;;;;;;;;;5065606;28;20427;-69
2022/08/28 11:57:07;;;;;;;4.95;4.60;;;;;;;;;;5065382;28;20220;-69
2022/08/28 11:59:45;;;;;;;5.00;4.60;;;;;;;;;;5065106;28;20200;-69
2022/08/28 12:02:30;;;;;;;7.30;5.18;;;;;;;;;;5065331;28;20496;-69
2022/08/28 12:04:57;;;;;;;8.27;5.65;;;;;;;;;;5065303;28;20223;-69
2022/08/28 12:07:25;;;;;;;5.68;5.10;;;;;;;;;;5065184;28;20231;-68
2022/08/28 12:09:51;;;;;;;6.72;5.20;;;;;;;;;;5065044;28;20200;-69
2022/08/28 12:12:45;;;;;;;5.82;5.32;;;;;;;;;;5064949;28;20196;-69
2022/08/28 12:15:32;;;;;;;5.75;5.25;;;;;;;;;;5040606;28;20476;-69
2022/08/28 12:18:00;;;;;;;5.90;5.32;;;;;;;;;;5064858;28;20203;-69
2022/08/28 12:20:40;;;;;;;5.65;4.80;;;;;;;;;;5064815;28;20504;-68
2022/08/28 12:23:25;;;;;;;6.40;4.93;;;;;;;;;;5064822;28;20185;-68
2022/08/28 12:25:58;;;;;;;6.40;4.97;;;;;;;;;;5064906;28;20526;-71
2022/08/28 12:28:27;;;;;;;7.75;5.00;;;;;;;;;;5064863;28;20504;-69
2022/08/28 12:30:57;;;;;;;4.97;4.70;;;;;;;;;;5064507;28;20200;-69
2022/08/28 12:33:31;;;;;;;6.10;4.50;;;;;;;;;;5063681;28;20200;-69
2022/08/28 12:36:00;;;;;;;5.38;4.65;;;;;;;;;;5064712;28;20220;-69
2022/08/28 12:38:27;;;;;;;7.40;4.72;;;;;;;;;;5064759;28;20204;-69
2022/08/28 12:40:54;;;;;;;6.43;4.68;;;;;;;;;;5064579;28;20197;-71
2022/08/28 12:43:29;;;;;;;7.50;4.30;;;;;;;;;;5065664;28;20197;-69
2022/08/28 12:45:57;;;;;;;5.68;5.05;;;;;;;;;;5064392;28;20198;-69
2022/08/28 12:48:24;;;;;;;4.93;4.20;;;;;;;;;;5064809;28;20201;-69
2022/08/28 12:50:58;;;;;;;7.95;4.60;;;;;;;;;;5064307;28;20204;-69
2022/08/28 12:53:24;;;;;;;4.85;4.50;;;;;;;;;;5064428;28;20197;-69
2022/08/28 12:55:51;;;;;;;5.32;4.32;;;;;;;;;;5064138;28;20204;-69
2022/08/28 12:58:27;;;;;;;4.97;4.50;;;;;;;;;;5064088;28;20616;-69
2022/08/28 13:00:56;;;;;;;4.65;4.25;;;;;;;;;;5063985;28;20196;-69
2022/08/28 13:03:22;;;;;;;5.10;4.38;;;;;;;;;;5064716;28;20212;-70
2022/08/28 13:05:55;;;;;;;7.57;4.18;;;;;;;;;;5065377;28;20216;-69
2022/08/28 13:08:23;;;;;;;5.53;4.20;;;;;;;;;;5064104;28;20275;-69
2022/08/28 13:10:50;;;;;;;3.92;3.63;;;;;;;;;;5063691;28;20219;-69
2022/08/28 13:13:19;;;;;;;6.55;4.07;;;;;;;;;;5064578;28;20200;-69
2022/08/28 13:15:47;;;;;;;7.07;4.20;;;;;;;;;;5063920;28;20201;-69
2022/08/28 13:18:28;;;;;;;5.40;4.00;;;;;;;;;;5064065;28;20197;-69
2022/08/28 13:21:10;;;;;;;5.13;4.40;;;;;;;;;;5061738;28;20219;-69
2022/08/28 13:23:38;;;;;;;4.78;4.40;;;;;;;;;;5064081;28;20234;-69
2022/08/28 13:26:04;;;;;;;4.88;4.55;;;;;;;;;;5063970;28;20196;-69
2022/08/28 13:28:35;;;;;;;4.35;3.83;;;;;;;;;;5063612;28;20196;-68
2022/08/28 13:31:01;;;;;;;5.28;4.22;;;;;;;;;;5063463;28;20203;-68
2022/08/28 13:33:27;;;;;;;5.65;4.13;;;;;;;;;;5063607;28;20204;-68
2022/08/28 13:35:54;;;;;;;4.32;4.00;;;;;;;;;;5063317;28;20204;-68
2022/08/28 13:38:21;;;;;;;4.32;3.90;;;;;;;;;;5063623;28;20236;-68
2022/08/28 13:40:50;;;;;;;5.00;4.55;;;;;;;;;;5063499;28;20204;-69
2022/08/28 13:43:16;;;;;;;5.15;4.43;;;;;;;;;;5063551;28;20361;-69
2022/08/28 13:45:44;;;;;;;5.97;4.20;;;;;;;;;;5063322;28;20196;-69
2022/08/28 13:48:10;;;;;;;4.63;4.22;;;;;;;;;;5063216;28;20201;-69
2022/08/28 13:50:37;;;;;;;7.55;3.80;;;;;;;;;;5062953;28;21007;-69
2022/08/28 13:53:04;;;;;;;4.50;4.13;;;;;;;;;;5063341;28;20196;-69
2022/08/28 13:55:30;;;;;;;3.97;3.67;;;;;;;;;;5063266;28;20197;-69
2022/08/28 13:57:57;;;;;;;3.97;3.58;;;;;;;;;;5062955;28;20220;-69
2022/08/28 14:00:24;;;;;;;4.28;3.67;;;;;;;;;;5062822;28;20207;-69
2022/08/28 14:05:35;;;;;;;3.88;3.67;;;;;;;;;;5062950;28;20558;-68
2022/08/28 14:08:02;;;;;;;5.05;4.53;;;;;;;;;;5063158;28;20508;-68
2022/08/28 14:10:28;;;;;;;4.45;4.07;;;;;;;;;;5062680;28;20373;-68
2022/08/28 14:12:55;;;;;;;4.68;3.88;;;;;;;;;;5062914;28;20402;-69
2022/08/28 14:15:22;;;;;;;7.70;4.32;;;;;;;;;;5062700;28;20203;-69
2022/08/28 14:17:49;;;;;;;4.63;4.07;;;;;;;;;;5062790;28;20227;-69
2022/08/28 14:20:15;;;;;;;5.57;4.30;;;;;;;;;;5062635;28;20420;-68
2022/08/28 14:22:41;;;;;;;4.00;3.80;;;;;;;;;;5062569;28;20272;-68
2022/08/28 14:25:09;;;;;;;6.60;4.30;;;;;;;;;;5062632;28;20496;-68
2022/08/28 14:27:35;;;;;;;4.30;4.00;;;;;;;;;;5062461;28;20219;-68
2022/08/28 14:30:02;;;;;;;4.22;3.83;;;;;;;;;;5062219;28;20204;-68
2022/08/28 14:32:29;;;;;;;5.22;3.97;;;;;;;;;;5062637;28;20196;-68
2022/08/28 14:34:56;;;;;;;4.63;3.95;;;;;;;;;;5062436;28;20203;-68
2022/08/28 14:37:22;;;;;;;4.32;3.92;;;;;;;;;;5062334;28;20223;-68
2022/08/28 14:39:49;;;;;;;4.93;3.40;;;;;;;;;;5062259;28;20201;-68
2022/08/28 14:42:16;;;;;;;4.53;4.13;;;;;;;;;;5062845;28;20203;-68
2022/08/28 14:44:42;;;;;;;3.80;3.55;;;;;;;;;;5062162;28;20500;-69
2022/08/28 14:47:08;;;;;;;4.90;3.85;;;;;;;;;;5062421;28;20394;-69
2022/08/28 14:49:36;;;;;;;3.83;3.22;;;;;;;;;;5062132;28;20196;-69
2022/08/28 14:52:02;;;;;;;3.72;3.53;;;;;;;;;;5062256;28;20204;-68